createdAt,value
2018-04-25T00:00:26.952Z,0
2018-04-25T00:01:27.238Z,0
2018-04-25T00:02:26.809Z,0
2018-04-25T00:03:27.034Z,0
2018-04-25T00:04:27.059Z,0
2018-04-25T00:05:26.574Z,0
2018-04-25T00:06:26.850Z,0
2018-04-25T00:07:27.131Z,0
2018-04-25T00:08:27.148Z,0
2018-04-25T00:09:27.464Z,0
2018-04-25T00:10:27.196Z,0
2018-04-25T00:11:27.492Z,0
2018-04-25T00:12:27.501Z,0
2018-04-25T00:13:27.521Z,0
2018-04-25T00:14:27.302Z,0
2018-04-25T00:15:27.579Z,0
2018-04-25T00:16:27.593Z,0
2018-04-25T00:17:27.151Z,0
2018-04-25T00:18:27.128Z,0
2018-04-25T00:19:27.658Z,0
2018-04-25T00:20:27.422Z,0
2018-04-25T00:21:27.454Z,0
2018-04-25T00:22:27.479Z,0
2018-04-25T00:23:27.750Z,0
2018-04-25T00:24:28.056Z,0
2018-04-25T00:25:27.545Z,0
2018-04-25T00:26:27.610Z,0
2018-04-25T00:27:27.594Z,0
2018-04-25T00:28:27.865Z,0
2018-04-25T00:29:27.905Z,0
2018-04-25T00:30:27.400Z,0
2018-04-25T00:31:27.685Z,0
2018-04-25T00:32:28.006Z,0
2018-04-25T00:33:27.727Z,0
2018-04-25T00:34:28.024Z,0
2018-04-25T00:35:28.029Z,0
2018-04-25T00:36:27.792Z,0
2018-04-25T00:37:27.813Z,0
2018-04-25T00:38:28.093Z,0
2018-04-25T00:39:28.115Z,0
2018-04-25T00:40:27.881Z,0
2018-04-25T00:41:27.652Z,0
2018-04-25T00:42:28.180Z,0
2018-04-25T00:43:27.957Z,0
2018-04-25T00:44:27.807Z,0
2018-04-25T00:45:28.001Z,0
2018-04-25T00:46:28.031Z,0
2018-04-25T00:47:27.796Z,0
2018-04-25T00:48:28.379Z,0
2018-04-25T00:49:27.866Z,0
2018-04-25T00:50:28.132Z,0
2018-04-25T00:51:28.139Z,0
2018-04-25T00:52:27.660Z,0
2018-04-25T00:53:28.286Z,0
2018-04-25T00:54:28.208Z,0
2018-04-25T00:55:28.488Z,0
2018-04-25T00:56:28.520Z,0
2018-04-25T00:57:28.280Z,0
2018-04-25T00:58:28.359Z,0
2018-04-25T00:59:27.921Z,0
2018-04-25T01:00:28.617Z,0
2018-04-25T01:01:28.637Z,0
2018-04-25T01:02:27.886Z,0
2018-04-25T01:03:28.431Z,0
2018-04-25T01:04:28.702Z,0
2018-04-25T01:05:28.734Z,0
2018-04-25T01:06:28.747Z,0
2018-04-25T01:07:27.996Z,0
2018-04-25T01:08:28.778Z,0
2018-04-25T01:09:28.811Z,0
2018-04-25T01:10:28.576Z,0
2018-04-25T01:11:28.602Z,0
2018-04-25T01:12:28.874Z,0
2018-04-25T01:13:28.954Z,0
2018-04-25T01:14:28.749Z,0
2018-04-25T01:15:28.687Z,0
2018-04-25T01:16:28.978Z,0
2018-04-25T01:17:28.984Z,0
2018-04-25T01:18:28.760Z,0
2018-04-25T01:19:28.782Z,0
2018-04-25T01:20:29.064Z,0
2018-04-25T01:21:28.590Z,0
2018-04-25T01:22:28.589Z,0
2018-04-25T01:23:28.879Z,0
2018-04-25T01:24:28.896Z,0
2018-04-25T01:25:29.179Z,0
2018-04-25T01:26:28.446Z,0
2018-04-25T01:27:28.971Z,0
2018-04-25T01:28:29.290Z,0
2018-04-25T01:29:29.014Z,0
2018-04-25T01:30:29.051Z,0
2018-04-25T01:31:29.371Z,0
2018-04-25T01:32:29.078Z,0
2018-04-25T01:33:29.143Z,0
2018-04-25T01:34:29.119Z,0
2018-04-25T01:35:29.146Z,0
2018-04-25T01:36:29.163Z,0
2018-04-25T01:37:29.193Z,0
2018-04-25T01:38:29.483Z,0
2018-04-25T01:39:28.956Z,0
2018-04-25T01:40:29.483Z,0
2018-04-25T01:41:29.243Z,0
2018-04-25T01:42:29.030Z,0
2018-04-25T01:43:30.750Z,0
2018-04-25T01:44:29.063Z,0
2018-04-25T01:45:29.336Z,0
2018-04-25T01:46:29.105Z,0
2018-04-25T01:47:28.897Z,0
2018-04-25T01:48:29.676Z,0
2018-04-25T01:49:29.593Z,0
2018-04-25T01:50:29.479Z,0
2018-04-25T01:51:29.742Z,0
2018-04-25T01:52:29.507Z,0
2018-04-25T01:53:29.786Z,0
2018-04-25T01:54:29.826Z,0
2018-04-25T01:55:29.855Z,0
2018-04-25T01:56:29.592Z,0
2018-04-25T01:57:29.870Z,0
2018-04-25T01:58:29.647Z,0
2018-04-25T01:59:30.016Z,0
2018-04-25T02:00:29.427Z,0
2018-04-25T02:01:29.969Z,0
2018-04-25T02:02:29.737Z,0
2018-04-25T02:03:29.764Z,0
2018-04-25T02:04:29.826Z,0
2018-04-25T02:05:29.523Z,0
2018-04-25T02:06:30.093Z,0
2018-04-25T02:07:29.594Z,0
2018-04-25T02:08:29.639Z,0
2018-04-25T02:09:29.987Z,0
2018-04-25T02:10:29.904Z,0
2018-04-25T02:11:29.929Z,0
2018-04-25T02:12:29.707Z,0
2018-04-25T02:13:29.976Z,0
2018-04-25T02:14:29.490Z,0
2018-04-25T02:15:30.277Z,0
2018-04-25T02:16:30.056Z,0
2018-04-25T02:17:30.075Z,0
2018-04-25T02:18:30.356Z,0
2018-04-25T02:19:30.166Z,0
2018-04-25T02:20:30.131Z,0
2018-04-25T02:21:30.152Z,0
2018-04-25T02:22:30.177Z,0
2018-04-25T02:23:30.204Z,0
2018-04-25T02:24:29.966Z,0
2018-04-25T02:25:30.236Z,0
2018-04-25T02:26:30.505Z,0
2018-04-25T02:27:30.533Z,0
2018-04-25T02:28:30.306Z,0
2018-04-25T02:29:30.068Z,0
2018-04-25T02:30:30.097Z,0
2018-04-25T02:31:30.119Z,0
2018-04-25T02:32:30.658Z,0
2018-04-25T02:33:30.678Z,0
2018-04-25T02:34:30.331Z,0
2018-04-25T02:35:30.452Z,0
2018-04-25T02:36:30.753Z,0
2018-04-25T02:37:30.498Z,0
2018-04-25T02:38:30.784Z,0
2018-04-25T02:39:30.552Z,0
2018-04-25T02:40:30.825Z,0
2018-04-25T02:41:30.866Z,0
2018-04-25T02:42:30.354Z,0
2018-04-25T02:43:30.662Z,0
2018-04-25T02:44:30.661Z,0
2018-04-25T02:45:30.681Z,0
2018-04-25T02:46:30.966Z,0
2018-04-25T02:47:30.715Z,0
2018-04-25T02:48:30.485Z,0
2018-04-25T02:49:30.814Z,0
2018-04-25T02:50:31.045Z,0
2018-04-25T02:51:30.820Z,0
2018-04-25T02:52:30.831Z,0
2018-04-25T02:53:30.854Z,0
2018-04-25T02:54:30.716Z,0
2018-04-25T02:55:30.896Z,0
2018-04-25T02:56:30.909Z,0
2018-04-25T02:57:30.688Z,0
2018-04-25T02:58:30.941Z,0
2018-04-25T02:59:30.946Z,0
2018-04-25T03:00:31.207Z,0
2018-04-25T03:01:30.753Z,0
2018-04-25T03:02:30.997Z,0
2018-04-25T03:03:30.780Z,0
2018-04-25T03:04:31.097Z,0
2018-04-25T03:05:31.077Z,0
2018-04-25T03:06:30.840Z,0
2018-04-25T03:07:30.861Z,0
2018-04-25T03:08:31.132Z,0
2018-04-25T03:09:31.407Z,0
2018-04-25T03:10:30.947Z,0
2018-04-25T03:11:31.205Z,0
2018-04-25T03:12:31.215Z,0
2018-04-25T03:13:31.291Z,0
2018-04-25T03:14:30.763Z,0
2018-04-25T03:15:31.280Z,0
2018-04-25T03:16:31.345Z,0
2018-04-25T03:17:31.615Z,0
2018-04-25T03:18:31.131Z,0
2018-04-25T03:19:31.451Z,0
2018-04-25T03:20:31.687Z,0
2018-04-25T03:21:31.699Z,0
2018-04-25T03:22:31.334Z,0
2018-04-25T03:23:31.508Z,0
2018-04-25T03:24:31.355Z,0
2018-04-25T03:25:31.504Z,0
2018-04-25T03:26:31.524Z,0
2018-04-25T03:27:31.548Z,0
2018-04-25T03:28:31.571Z,0
2018-04-25T03:29:31.847Z,0
2018-04-25T03:30:31.672Z,0
2018-04-25T03:31:31.412Z,0
2018-04-25T03:32:31.423Z,0
2018-04-25T03:33:31.700Z,0
2018-04-25T03:34:32.038Z,0
2018-04-25T03:35:31.743Z,0
2018-04-25T03:36:31.521Z,0
2018-04-25T03:37:32.043Z,0
2018-04-25T03:38:31.813Z,0
2018-04-25T03:39:31.846Z,0
2018-04-25T03:40:32.106Z,0
2018-04-25T03:41:31.611Z,0
2018-04-25T03:42:31.646Z,0
2018-04-25T03:43:32.164Z,0
2018-04-25T03:44:32.186Z,0
2018-04-25T03:45:31.697Z,0
2018-04-25T03:46:32.011Z,0
2018-04-25T03:47:32.249Z,0
2018-04-25T03:48:31.794Z,0
2018-04-25T03:49:32.090Z,0
2018-04-25T03:50:32.308Z,0
2018-04-25T03:51:32.076Z,0
2018-04-25T03:52:32.371Z,0
2018-04-25T03:53:32.127Z,0
2018-04-25T03:54:32.408Z,0
2018-04-25T03:55:32.171Z,0
2018-04-25T03:56:32.189Z,0
2018-04-25T03:57:32.229Z,0
2018-04-25T03:58:32.236Z,0
2018-04-25T03:59:32.261Z,0
2018-04-25T04:00:32.523Z,0
2018-04-25T04:01:32.293Z,0
2018-04-25T04:02:32.571Z,0
2018-04-25T04:03:32.598Z,0
2018-04-25T04:04:32.613Z,5
2018-04-25T04:05:31.874Z,5
2018-04-25T04:06:32.459Z,5
2018-04-25T04:07:32.680Z,5
2018-04-25T04:08:32.755Z,5
2018-04-25T04:09:32.725Z,5
2018-04-25T04:10:32.499Z,5
2018-04-25T04:11:32.255Z,10
2018-04-25T04:12:32.797Z,10
2018-04-25T04:13:32.050Z,10
2018-04-25T04:14:32.320Z,10
2018-04-25T04:15:32.592Z,10
2018-04-25T04:16:32.616Z,10
2018-04-25T04:17:32.890Z,15
2018-04-25T04:18:32.917Z,15
2018-04-25T04:19:32.180Z,15
2018-04-25T04:20:32.696Z,15
2018-04-25T04:21:33.024Z,20
2018-04-25T04:22:32.496Z,20
2018-04-25T04:23:32.522Z,20
2018-04-25T04:24:32.539Z,20
2018-04-25T04:25:33.072Z,25
2018-04-25T04:26:33.091Z,25
2018-04-25T04:27:32.863Z,25
2018-04-25T04:28:32.622Z,30
2018-04-25T04:29:32.646Z,30
2018-04-25T04:30:32.663Z,30
2018-04-25T04:31:32.948Z,35
2018-04-25T04:32:33.213Z,35
2018-04-25T04:33:32.985Z,35
2018-04-25T04:34:32.749Z,40
2018-04-25T04:35:32.268Z,40
2018-04-25T04:36:33.363Z,40
2018-04-25T04:37:33.330Z,45
2018-04-25T04:38:33.107Z,45
2018-04-25T04:39:33.125Z,45
2018-04-25T04:40:33.162Z,50
2018-04-25T04:41:33.190Z,50
2018-04-25T04:42:33.441Z,50
2018-04-25T04:43:33.199Z,50
2018-04-25T04:44:33.547Z,55
2018-04-25T04:45:32.981Z,55
2018-04-25T04:46:33.008Z,55
2018-04-25T04:47:33.542Z,60
2018-04-25T04:48:33.572Z,60
2018-04-25T04:49:33.798Z,60
2018-04-25T04:50:33.348Z,60
2018-04-25T04:51:33.679Z,65
2018-04-25T04:52:33.134Z,65
2018-04-25T04:53:33.674Z,65
2018-04-25T04:54:33.186Z,70
2018-04-25T04:55:33.716Z,70
2018-04-25T04:56:33.501Z,70
2018-04-25T04:57:33.241Z,70
2018-04-25T04:58:33.768Z,75
2018-04-25T04:59:33.802Z,75
2018-04-25T05:00:33.564Z,75
2018-04-25T05:01:33.609Z,80
2018-04-25T05:02:33.619Z,80
2018-04-25T05:03:33.639Z,80
2018-04-25T05:04:33.392Z,85
2018-04-25T05:05:33.668Z,85
2018-04-25T05:06:33.999Z,85
2018-04-25T05:07:33.716Z,85
2018-04-25T05:08:34.444Z,90
2018-04-25T05:09:34.006Z,90
2018-04-25T05:10:34.033Z,90
2018-04-25T05:11:35.006Z,95
2018-04-25T05:12:33.841Z,95
2018-04-25T05:13:34.110Z,95
2018-04-25T05:14:34.146Z,95
2018-04-25T05:15:33.894Z,100
2018-04-25T05:16:33.659Z,100
2018-04-25T05:17:34.191Z,100
2018-04-25T05:18:33.973Z,100
2018-04-25T05:19:34.256Z,105
2018-04-25T05:20:33.999Z,105
2018-04-25T05:21:34.223Z,105
2018-04-25T05:22:33.796Z,105
2018-04-25T05:23:34.061Z,110
2018-04-25T05:24:35.047Z,110
2018-04-25T05:25:34.122Z,110
2018-04-25T05:26:34.390Z,115
2018-04-25T05:27:34.404Z,115
2018-04-25T05:28:34.431Z,115
2018-04-25T05:29:34.458Z,115
2018-04-25T05:30:33.976Z,120
2018-04-25T05:31:33.994Z,120
2018-04-25T05:32:33.758Z,120
2018-04-25T05:33:34.295Z,120
2018-04-25T05:34:34.565Z,120
2018-04-25T05:35:34.342Z,120
2018-04-25T05:36:34.151Z,120
2018-04-25T05:37:34.390Z,125
2018-04-25T05:38:33.990Z,125
2018-04-25T05:39:34.667Z,130
2018-04-25T05:40:34.439Z,130
2018-04-25T05:41:34.719Z,130
2018-04-25T05:42:34.764Z,135
2018-04-25T05:43:34.758Z,135
2018-04-25T05:44:34.414Z,135
2018-04-25T05:45:34.805Z,135
2018-04-25T05:46:34.578Z,140
2018-04-25T05:47:34.334Z,140
2018-04-25T05:48:34.869Z,140
2018-04-25T05:49:34.388Z,135
2018-04-25T05:50:34.914Z,130
2018-04-25T05:51:34.479Z,140
2018-04-25T05:52:34.964Z,145
2018-04-25T05:53:34.981Z,145
2018-04-25T05:54:34.759Z,150
2018-04-25T05:55:34.533Z,150
2018-04-25T05:56:35.057Z,145
2018-04-25T05:57:34.802Z,145
2018-04-25T05:58:34.841Z,150
2018-04-25T05:59:35.101Z,155
2018-04-25T06:00:34.635Z,155
2018-04-25T06:01:34.906Z,160
2018-04-25T06:02:34.929Z,160
2018-04-25T06:03:34.955Z,160
2018-04-25T06:04:34.985Z,165
2018-04-25T06:05:35.265Z,165
2018-04-25T06:06:34.814Z,170
2018-04-25T06:07:34.790Z,170
2018-04-25T06:08:35.324Z,170
2018-04-25T06:09:35.090Z,170
2018-04-25T06:10:34.861Z,175
2018-04-25T06:11:35.383Z,175
2018-04-25T06:12:35.570Z,180
2018-04-25T06:13:35.185Z,180
2018-04-25T06:14:34.944Z,175
2018-04-25T06:15:35.489Z,185
2018-04-25T06:16:35.507Z,185
2018-04-25T06:17:35.291Z,185
2018-04-25T06:18:35.560Z,175
2018-04-25T06:19:35.337Z,180
2018-04-25T06:20:35.612Z,175
2018-04-25T06:21:35.422Z,160
2018-04-25T06:22:35.390Z,175
2018-04-25T06:23:35.665Z,190
2018-04-25T06:24:35.184Z,190
2018-04-25T06:25:35.208Z,190
2018-04-25T06:26:35.683Z,190
2018-04-25T06:27:35.516Z,190
2018-04-25T06:28:35.027Z,195
2018-04-25T06:29:35.562Z,195
2018-04-25T06:30:35.328Z,200
2018-04-25T06:31:34.834Z,195
2018-04-25T06:32:35.876Z,200
2018-04-25T06:33:35.916Z,200
2018-04-25T06:34:35.751Z,205
2018-04-25T06:35:36.036Z,205
2018-04-25T06:36:35.507Z,205
2018-04-25T06:37:35.482Z,205
2018-04-25T06:38:36.027Z,205
2018-04-25T06:39:35.804Z,205
2018-04-25T06:40:36.059Z,200
2018-04-25T06:41:36.091Z,205
2018-04-25T06:42:35.600Z,210
2018-04-25T06:43:35.884Z,210
2018-04-25T06:44:35.904Z,210
2018-04-25T06:45:36.179Z,210
2018-04-25T06:46:36.252Z,210
2018-04-25T06:47:35.918Z,215
2018-04-25T06:48:35.997Z,215
2018-04-25T06:49:36.025Z,215
2018-04-25T06:50:36.448Z,215
2018-04-25T06:51:36.167Z,215
2018-04-25T06:52:36.097Z,220
2018-04-25T06:53:35.608Z,220
2018-04-25T06:54:36.124Z,220
2018-04-25T06:55:36.153Z,220
2018-04-25T06:56:36.425Z,220
2018-04-25T06:57:35.948Z,220
2018-04-25T06:58:35.991Z,220
2018-04-25T06:59:36.279Z,220
2018-04-25T07:00:36.033Z,220
2018-04-25T07:01:36.305Z,220
2018-04-25T07:02:36.590Z,220
2018-04-25T07:03:36.616Z,210
2018-04-25T07:04:36.628Z,210
2018-04-25T07:05:36.403Z,215
2018-04-25T07:06:36.743Z,220
2018-04-25T07:07:36.448Z,225
2018-04-25T07:08:36.467Z,225
2018-04-25T07:09:36.750Z,225
2018-04-25T07:10:36.264Z,230
2018-04-25T07:11:36.302Z,245
2018-04-25T07:12:36.573Z,245
2018-04-25T07:13:36.987Z,240
2018-04-25T07:14:36.881Z,240
2018-04-25T07:15:36.709Z,235
2018-04-25T07:16:36.417Z,235
2018-04-25T07:17:36.694Z,235
2018-04-25T07:18:36.975Z,240
2018-04-25T07:19:36.738Z,240
2018-04-25T07:20:37.024Z,240
2018-04-25T07:21:37.101Z,245
2018-04-25T07:22:36.558Z,250
2018-04-25T07:23:37.088Z,250
2018-04-25T07:24:37.115Z,250
2018-04-25T07:25:37.136Z,250
2018-04-25T07:26:37.264Z,245
2018-04-25T07:27:37.187Z,245
2018-04-25T07:28:36.962Z,245
2018-04-25T07:29:36.939Z,245
2018-04-25T07:30:37.262Z,245
2018-04-25T07:31:37.042Z,240
2018-04-25T07:32:37.057Z,245
2018-04-25T07:33:36.856Z,245
2018-04-25T07:34:37.107Z,255
2018-04-25T07:35:37.213Z,245
2018-04-25T07:36:37.205Z,250
2018-04-25T07:37:37.193Z,260
2018-04-25T07:38:37.485Z,255
2018-04-25T07:39:37.497Z,255
2018-04-25T07:40:37.260Z,260
2018-04-25T07:41:37.063Z,250
2018-04-25T07:42:37.063Z,245
2018-04-25T07:43:37.325Z,260
2018-04-25T07:44:37.614Z,260
2018-04-25T07:45:37.629Z,265
2018-04-25T07:46:36.901Z,260
2018-04-25T07:47:37.183Z,260
2018-04-25T07:48:37.434Z,265
2018-04-25T07:49:37.738Z,265
2018-04-25T07:50:37.232Z,270
2018-04-25T07:51:37.133Z,270
2018-04-25T07:52:37.539Z,275
2018-04-25T07:53:37.813Z,275
2018-04-25T07:54:37.852Z,270
2018-04-25T07:55:37.870Z,275
2018-04-25T07:56:37.940Z,270
2018-04-25T07:57:37.171Z,275
2018-04-25T07:58:37.701Z,275
2018-04-25T07:59:37.986Z,285
2018-04-25T08:00:37.760Z,285
2018-04-25T08:01:37.778Z,290
2018-04-25T08:02:37.800Z,300
2018-04-25T08:03:37.319Z,305
2018-04-25T08:04:37.608Z,305
2018-04-25T08:05:38.146Z,310
2018-04-25T08:06:38.204Z,315
2018-04-25T08:07:37.933Z,310
2018-04-25T08:08:37.727Z,305
2018-04-25T08:09:38.076Z,305
2018-04-25T08:10:38.004Z,305
2018-04-25T08:11:37.531Z,315
2018-04-25T08:12:38.328Z,320
2018-04-25T08:13:38.347Z,330
2018-04-25T08:14:38.360Z,330
2018-04-25T08:15:38.124Z,330
2018-04-25T08:16:38.145Z,330
2018-04-25T08:17:38.190Z,320
2018-04-25T08:18:37.700Z,320
2018-04-25T08:19:38.236Z,310
2018-04-25T08:20:38.263Z,330
2018-04-25T08:21:38.340Z,335
2018-04-25T08:22:38.312Z,335
2018-04-25T08:23:38.086Z,345
2018-04-25T08:24:38.132Z,350
2018-04-25T08:25:38.407Z,375
2018-04-25T08:26:38.186Z,400
2018-04-25T08:27:38.191Z,400
2018-04-25T08:28:38.465Z,395
2018-04-25T08:29:38.747Z,380
2018-04-25T08:30:38.774Z,375
2018-04-25T08:31:38.804Z,325
2018-04-25T08:32:38.809Z,370
2018-04-25T08:33:38.605Z,335
2018-04-25T08:34:38.866Z,375
2018-04-25T08:35:38.890Z,335
2018-04-25T08:36:38.714Z,380
2018-04-25T08:37:38.693Z,370
2018-04-25T08:38:38.719Z,360
2018-04-25T08:39:38.752Z,375
2018-04-25T08:40:38.264Z,365
2018-04-25T08:41:38.355Z,355
2018-04-25T08:42:38.858Z,355
2018-04-25T08:43:38.860Z,360
2018-04-25T08:44:38.562Z,375
2018-04-25T08:45:38.918Z,375
2018-04-25T08:46:39.242Z,385
2018-04-25T08:47:38.977Z,390
2018-04-25T08:48:39.258Z,400
2018-04-25T08:49:39.036Z,395
2018-04-25T08:50:39.051Z,390
2018-04-25T08:51:39.081Z,405
2018-04-25T08:52:39.466Z,430
2018-04-25T08:53:39.133Z,440
2018-04-25T08:54:39.420Z,405
2018-04-25T08:55:38.935Z,265
2018-04-25T08:56:39.221Z,255
2018-04-25T08:57:39.004Z,270
2018-04-25T08:58:39.263Z,380
2018-04-25T08:59:39.287Z,380
2018-04-25T09:00:39.311Z,385
2018-04-25T09:01:39.598Z,390
2018-04-25T09:02:39.629Z,390
2018-04-25T09:03:39.738Z,400
2018-04-25T09:04:38.914Z,405
2018-04-25T09:05:39.466Z,410
2018-04-25T09:06:39.729Z,415
2018-04-25T09:07:39.761Z,420
2018-04-25T09:08:39.843Z,420
2018-04-25T09:09:39.564Z,435
2018-04-25T09:10:39.847Z,425
2018-04-25T09:11:39.663Z,310
2018-04-25T09:12:39.895Z,370
2018-04-25T09:13:39.941Z,455
2018-04-25T09:14:39.939Z,440
2018-04-25T09:15:39.742Z,315
2018-04-25T09:16:39.981Z,455
2018-04-25T09:17:39.512Z,445
2018-04-25T09:18:39.789Z,375
2018-04-25T09:19:39.557Z,430
2018-04-25T09:20:39.586Z,465
2018-04-25T09:21:39.924Z,540
2018-04-25T09:22:40.141Z,590
2018-04-25T09:23:39.719Z,380
2018-04-25T09:24:40.449Z,365
2018-04-25T09:25:39.987Z,565
2018-04-25T09:26:40.283Z,570
2018-04-25T09:27:40.042Z,350
2018-04-25T09:28:40.157Z,370
2018-04-25T09:29:40.116Z,525
2018-04-25T09:30:39.876Z,610
2018-04-25T09:31:40.405Z,560
2018-04-25T09:32:40.419Z,355
2018-04-25T09:33:40.210Z,375
2018-04-25T09:34:40.375Z,640
2018-04-25T09:35:40.522Z,625
2018-04-25T09:36:40.546Z,395
2018-04-25T09:37:40.339Z,650
2018-04-25T09:38:40.351Z,645
2018-04-25T09:39:40.690Z,370
2018-04-25T09:40:40.656Z,505
2018-04-25T09:41:40.449Z,320
2018-04-25T09:42:40.454Z,365
2018-04-25T09:43:40.745Z,615
2018-04-25T09:44:40.266Z,585
2018-04-25T09:45:40.293Z,420
2018-04-25T09:46:40.391Z,355
2018-04-25T09:47:40.605Z,385
2018-04-25T09:48:40.649Z,595
2018-04-25T09:49:40.153Z,605
2018-04-25T09:50:40.435Z,370
2018-04-25T09:51:41.011Z,395
2018-04-25T09:52:40.246Z,620
2018-04-25T09:53:40.871Z,625
2018-04-25T09:54:40.615Z,630
2018-04-25T09:55:41.091Z,615
2018-04-25T09:56:40.864Z,595
2018-04-25T09:57:41.337Z,345
2018-04-25T09:58:41.179Z,610
2018-04-25T09:59:40.745Z,625
2018-04-25T10:00:40.471Z,650
2018-04-25T10:01:41.266Z,635
2018-04-25T10:02:41.292Z,620
2018-04-25T10:03:41.065Z,410
2018-04-25T10:04:41.101Z,605
2018-04-25T10:05:41.135Z,650
2018-04-25T10:06:41.411Z,645
2018-04-25T10:07:41.191Z,400
2018-04-25T10:08:41.214Z,645
2018-04-25T10:09:41.295Z,555
2018-04-25T10:10:41.561Z,400
2018-04-25T10:11:41.301Z,640
2018-04-25T10:12:41.083Z,625
2018-04-25T10:13:41.367Z,390
2018-04-25T10:14:41.198Z,400
2018-04-25T10:15:41.176Z,420
2018-04-25T10:16:41.691Z,450
2018-04-25T10:17:41.226Z,615
2018-04-25T10:18:41.244Z,330
2018-04-25T10:19:41.529Z,335
2018-04-25T10:20:41.810Z,340
2018-04-25T10:21:41.593Z,350
2018-04-25T10:22:41.129Z,385
2018-04-25T10:23:41.932Z,350
2018-04-25T10:24:41.752Z,350
2018-04-25T10:25:42.344Z,600
2018-04-25T10:26:41.759Z,615
2018-04-25T10:27:41.818Z,630
2018-04-25T10:28:42.095Z,635
2018-04-25T10:29:41.848Z,585
2018-04-25T10:30:42.122Z,380
2018-04-25T10:31:41.901Z,405
2018-04-25T10:32:42.173Z,635
2018-04-25T10:33:42.204Z,635
2018-04-25T10:34:42.225Z,625
2018-04-25T10:35:41.748Z,625
2018-04-25T10:36:42.342Z,560
2018-04-25T10:37:42.320Z,545
2018-04-25T10:38:41.889Z,370
2018-04-25T10:39:42.432Z,340
2018-04-25T10:40:42.575Z,345
2018-04-25T10:41:41.929Z,445
2018-04-25T10:42:42.484Z,590
2018-04-25T10:43:42.491Z,565
2018-04-25T10:44:42.027Z,565
2018-04-25T10:45:42.041Z,605
2018-04-25T10:46:42.089Z,625
2018-04-25T10:47:41.857Z,615
2018-04-25T10:48:42.397Z,605
2018-04-25T10:49:42.674Z,635
2018-04-25T10:50:42.457Z,620
2018-04-25T10:51:42.738Z,605
2018-04-25T10:52:42.515Z,610
2018-04-25T10:53:42.296Z,610
2018-04-25T10:54:42.871Z,625
2018-04-25T10:55:42.342Z,630
2018-04-25T10:56:42.643Z,655
2018-04-25T10:57:42.670Z,680
2018-04-25T10:58:42.950Z,400
2018-04-25T10:59:42.471Z,445
2018-04-25T11:00:42.499Z,370
2018-04-25T11:01:42.534Z,395
2018-04-25T11:02:42.564Z,355
2018-04-25T11:03:42.844Z,370
2018-04-25T11:04:42.813Z,390
2018-04-25T11:05:42.907Z,720
2018-04-25T11:06:43.242Z,540
2018-04-25T11:07:43.248Z,700
2018-04-25T11:08:42.996Z,385
2018-04-25T11:09:43.084Z,405
2018-04-25T11:10:43.292Z,480
2018-04-25T11:11:43.072Z,390
2018-04-25T11:12:43.349Z,755
2018-04-25T11:13:43.384Z,500
2018-04-25T11:14:43.166Z,770
2018-04-25T11:15:43.456Z,690
2018-04-25T11:16:43.482Z,730
2018-04-25T11:17:43.502Z,750
2018-04-25T11:18:43.601Z,765
2018-04-25T11:19:43.566Z,670
2018-04-25T11:20:43.286Z,755
2018-04-25T11:21:43.377Z,420
2018-04-25T11:22:43.507Z,380
2018-04-25T11:23:43.476Z,740
2018-04-25T11:24:44.731Z,755
2018-04-25T11:25:43.257Z,770
2018-04-25T11:26:43.764Z,380
2018-04-25T11:27:43.584Z,760
2018-04-25T11:28:43.604Z,755
2018-04-25T11:29:43.864Z,740
2018-04-25T11:30:43.393Z,745
2018-04-25T11:31:43.684Z,750
2018-04-25T11:32:43.968Z,765
2018-04-25T11:33:44.005Z,775
2018-04-25T11:34:44.047Z,770
2018-04-25T11:35:44.136Z,715
2018-04-25T11:36:44.109Z,405
2018-04-25T11:37:43.888Z,700
2018-04-25T11:38:43.942Z,375
2018-04-25T11:39:44.197Z,400
2018-04-25T11:40:43.981Z,830
2018-04-25T11:41:44.015Z,860
2018-04-25T11:42:44.051Z,435
2018-04-25T11:43:44.348Z,400
2018-04-25T11:44:44.115Z,515
2018-04-25T11:45:44.405Z,790
2018-04-25T11:46:44.171Z,820
2018-04-25T11:47:44.468Z,850
2018-04-25T11:48:44.234Z,855
2018-04-25T11:49:44.007Z,870
2018-04-25T11:50:44.602Z,870
2018-04-25T11:51:44.585Z,835
2018-04-25T11:52:44.108Z,825
2018-04-25T11:53:44.387Z,875
2018-04-25T11:54:44.431Z,900
2018-04-25T11:55:44.733Z,980
2018-04-25T11:56:44.749Z,1055
2018-04-25T11:57:44.773Z,1115
2018-04-25T11:58:44.807Z,1165
2018-04-25T11:59:45.044Z,1230
2018-04-25T12:00:44.936Z,1265
2018-04-25T12:01:44.908Z,1270
2018-04-25T12:02:44.526Z,1230
2018-04-25T12:03:44.974Z,1295
2018-04-25T12:04:44.709Z,1345
2018-04-25T12:05:44.739Z,1335
2018-04-25T12:06:44.522Z,1460
2018-04-25T12:07:44.815Z,1510
2018-04-25T12:08:44.840Z,1440
2018-04-25T12:09:44.620Z,1370
2018-04-25T12:10:45.206Z,1525
2018-04-25T12:11:44.977Z,1760
2018-04-25T12:12:45.074Z,1750
2018-04-25T12:13:44.797Z,1765
2018-04-25T12:14:45.086Z,1780
2018-04-25T12:15:45.422Z,1865
2018-04-25T12:16:45.146Z,1795
2018-04-25T12:17:45.191Z,1860
2018-04-25T12:18:45.375Z,1715
2018-04-25T12:19:45.244Z,1670
2018-04-25T12:20:45.274Z,1720
2018-04-25T12:21:45.316Z,1855
2018-04-25T12:22:45.080Z,1790
2018-04-25T12:23:45.609Z,1900
2018-04-25T12:24:45.140Z,1985
2018-04-25T12:25:45.685Z,1985
2018-04-25T12:26:45.474Z,2075
2018-04-25T12:27:45.512Z,2035
2018-04-25T12:28:45.541Z,2070
2018-04-25T12:29:45.444Z,2120
2018-04-25T12:30:45.663Z,2135
2018-04-25T12:31:45.651Z,2120
2018-04-25T12:32:45.724Z,2165
2018-04-25T12:33:45.695Z,2030
2018-04-25T12:34:45.974Z,2020
2018-04-25T12:35:45.905Z,2075
2018-04-25T12:36:45.806Z,2005
2018-04-25T12:37:45.824Z,1880
2018-04-25T12:38:45.894Z,2055
2018-04-25T12:39:45.909Z,2185
2018-04-25T12:40:45.938Z,2160
2018-04-25T12:41:45.784Z,2180
2018-04-25T12:42:46.027Z,2190
2018-04-25T12:43:46.050Z,2195
2018-04-25T12:44:46.336Z,2170
2018-04-25T12:45:46.423Z,2175
2018-04-25T12:46:46.143Z,2205
2018-04-25T12:47:45.935Z,2095
2018-04-25T12:48:45.960Z,1880
2018-04-25T12:49:46.257Z,2105
2018-04-25T12:50:46.029Z,2255
2018-04-25T12:51:46.314Z,2240
2018-04-25T12:52:46.612Z,2260
2018-04-25T12:53:46.465Z,2165
2018-04-25T12:54:46.422Z,2145
2018-04-25T12:55:46.728Z,2250
2018-04-25T12:56:46.503Z,2235
2018-04-25T12:57:46.565Z,2175
2018-04-25T12:58:46.820Z,2330
2018-04-25T12:59:46.568Z,2280
2018-04-25T13:00:46.416Z,2085
2018-04-25T13:01:46.569Z,2145
2018-04-25T13:02:46.694Z,2245
2018-04-25T13:03:47.056Z,2220
2018-04-25T13:04:46.759Z,2145
2018-04-25T13:05:47.055Z,2105
2018-04-25T13:06:46.827Z,2175
2018-04-25T13:07:46.858Z,2240
2018-04-25T13:08:46.638Z,2320
2018-04-25T13:09:46.945Z,2270
2018-04-25T13:10:46.960Z,2215
2018-04-25T13:11:46.997Z,2380
2018-04-25T13:12:47.289Z,2345
2018-04-25T13:13:47.061Z,2325
2018-04-25T13:14:47.099Z,2445
2018-04-25T13:15:47.183Z,2495
2018-04-25T13:16:47.444Z,2425
2018-04-25T13:17:47.481Z,2495
2018-04-25T13:18:47.504Z,2595
2018-04-25T13:19:47.017Z,2245
2018-04-25T13:20:47.056Z,2410
2018-04-25T13:21:47.087Z,2515
2018-04-25T13:22:47.374Z,1290
2018-04-25T13:23:47.662Z,2130
2018-04-25T13:24:47.717Z,455
2018-04-25T13:25:47.206Z,2135
2018-04-25T13:26:47.250Z,1630
2018-04-25T13:27:47.784Z,585
2018-04-25T13:28:47.635Z,610
2018-04-25T13:29:47.847Z,2305
2018-04-25T13:30:47.373Z,2260
2018-04-25T13:31:47.720Z,450
2018-04-25T13:32:47.700Z,640
2018-04-25T13:33:47.980Z,2085
2018-04-25T13:34:48.030Z,2135
2018-04-25T13:35:47.809Z,2240
2018-04-25T13:36:47.592Z,2410
2018-04-25T13:37:47.663Z,2525
2018-04-25T13:38:47.912Z,2445
2018-04-25T13:39:48.208Z,2585
2018-04-25T13:40:47.988Z,2275
2018-04-25T13:41:48.269Z,2410
2018-04-25T13:42:48.295Z,2355
2018-04-25T13:43:48.068Z,2535
2018-04-25T13:44:48.353Z,2495
2018-04-25T13:45:48.126Z,2395
2018-04-25T13:46:48.419Z,2505
2018-04-25T13:47:48.230Z,2300
2018-04-25T13:48:48.246Z,2250
2018-04-25T13:49:48.541Z,2510
2018-04-25T13:50:48.566Z,2560
2018-04-25T13:51:48.599Z,2615
2018-04-25T13:52:48.864Z,2640
2018-04-25T13:53:48.674Z,2685
2018-04-25T13:54:48.454Z,2615
2018-04-25T13:55:48.497Z,2390
2018-04-25T13:56:48.533Z,2490
2018-04-25T13:57:48.559Z,2590
2018-04-25T13:58:48.573Z,2515
2018-04-25T13:59:48.850Z,565
2018-04-25T14:00:49.190Z,1995
2018-04-25T14:01:48.969Z,2565